createdAt,value
2023-04-22T00:00:43.571Z,9.51
2023-04-22T00:01:43.502Z,9.47
2023-04-22T00:02:43.611Z,9.47
2023-04-22T00:03:43.737Z,9.50
2023-04-22T00:04:43.761Z,9.40
2023-04-22T00:05:43.615Z,9.44
2023-04-22T00:06:43.457Z,9.39
2023-04-22T00:07:43.453Z,9.37
2023-04-22T00:08:43.475Z,9.44
2023-04-22T00:09:43.469Z,9.44
2023-04-22T00:10:43.443Z,9.39
2023-04-22T00:11:43.433Z,9.32
2023-04-22T00:12:43.441Z,9.36
2023-04-22T00:13:43.388Z,9.32
2023-04-22T00:14:43.393Z,9.43
2023-04-22T00:15:43.429Z,9.40
2023-04-22T00:16:43.527Z,9.39
2023-04-22T00:17:43.402Z,9.54
2023-04-22T00:18:43.393Z,9.50
2023-04-22T00:19:43.391Z,9.46
2023-04-22T00:20:43.365Z,9.64
2023-04-22T00:21:44.286Z,9.54
2023-04-22T00:22:43.412Z,9.50
2023-04-22T00:23:43.372Z,9.54
2023-04-22T00:24:43.334Z,9.58
2023-04-22T00:25:43.323Z,9.56
2023-04-22T00:26:43.347Z,9.58
2023-04-22T00:27:43.316Z,9.55
2023-04-22T00:28:43.318Z,9.51
2023-04-22T00:29:43.276Z,9.48
2023-04-22T00:30:43.267Z,9.37
2023-04-22T00:31:43.338Z,9.37
2023-04-22T00:32:43.337Z,9.43
2023-04-22T00:33:43.280Z,9.34
2023-04-22T00:34:43.244Z,9.34
2023-04-22T00:35:43.231Z,9.26
2023-04-22T00:36:43.216Z,9.26
2023-04-22T00:37:43.206Z,9.25
2023-04-22T00:38:43.212Z,9.22
2023-04-22T00:39:43.419Z,9.19
2023-04-22T00:40:43.226Z,9.00
2023-04-22T00:41:43.187Z,9.14
2023-04-22T00:42:43.158Z,9.10
2023-04-22T00:43:43.177Z,9.11
2023-04-22T00:44:43.194Z,9.13
2023-04-22T00:45:43.139Z,9.21
2023-04-22T00:46:43.203Z,9.13
2023-04-22T00:47:43.188Z,9.19
2023-04-22T00:48:43.205Z,9.21
2023-04-22T00:49:43.167Z,9.19
2023-04-22T00:50:43.110Z,9.11
2023-04-22T00:51:43.092Z,9.21
2023-04-22T00:52:43.105Z,9.13
2023-04-22T00:53:43.104Z,9.19
2023-04-22T00:54:43.095Z,9.16
2023-04-22T00:55:43.101Z,9.08
2023-04-22T00:56:43.063Z,9.18
2023-04-22T00:57:43.114Z,9.19
2023-04-22T00:58:43.082Z,9.22
2023-04-22T00:59:43.043Z,9.23
2023-04-22T01:00:43.067Z,9.23
2023-04-22T01:01:43.084Z,9.25
2023-04-22T01:02:43.169Z,9.22
2023-04-22T01:03:43.237Z,9.13
2023-04-22T01:04:43.036Z,9.21
2023-04-22T01:05:43.027Z,9.16
2023-04-22T01:06:43.011Z,9.21
2023-04-22T01:07:42.992Z,9.21
2023-04-22T01:08:42.967Z,9.31
2023-04-22T01:09:43.037Z,9.34
2023-04-22T01:10:42.989Z,9.40
2023-04-22T01:11:42.992Z,9.40
2023-04-22T01:12:43.041Z,9.44
2023-04-22T01:13:43.014Z,9.44
2023-04-22T01:14:42.920Z,9.50
2023-04-22T01:15:42.931Z,9.43
2023-04-22T01:16:42.966Z,9.44
2023-04-22T01:17:42.969Z,9.43
2023-04-22T01:18:42.901Z,9.46
2023-04-22T01:19:43.257Z,9.32
2023-04-22T01:20:42.904Z,9.34
2023-04-22T01:21:42.870Z,9.40
2023-04-22T01:22:42.885Z,9.29
2023-04-22T01:23:42.854Z,9.23
2023-04-22T01:24:42.841Z,9.25
2023-04-22T01:25:42.950Z,9.26
2023-04-22T01:26:42.894Z,9.14
2023-04-22T01:27:42.834Z,9.08
2023-04-22T01:28:42.866Z,9.03
2023-04-22T01:29:43.077Z,9.08
2023-04-22T01:30:42.828Z,9.00
2023-04-22T01:31:42.811Z,8.99
2023-04-22T01:32:42.832Z,8.89
2023-04-22T01:33:42.815Z,8.95
2023-04-22T01:34:42.941Z,8.91
2023-04-22T01:35:42.866Z,8.92
2023-04-22T01:36:42.798Z,8.92
2023-04-22T01:37:42.770Z,8.89
2023-04-22T01:38:42.871Z,8.87
2023-04-22T01:39:42.788Z,8.85
2023-04-22T01:40:42.764Z,8.89
2023-04-22T01:41:42.754Z,8.92
2023-04-22T01:42:42.741Z,8.87
2023-04-22T01:43:42.694Z,8.82
2023-04-22T01:44:42.718Z,8.87
2023-04-22T01:45:42.724Z,8.85
2023-04-22T01:46:42.693Z,8.91
2023-04-22T01:47:42.733Z,8.88
2023-04-22T01:48:42.741Z,8.82
2023-04-22T01:49:43.057Z,8.91
2023-04-22T01:50:42.664Z,8.82
2023-04-22T01:51:42.632Z,8.95
2023-04-22T01:52:42.648Z,8.89
2023-04-22T01:53:42.715Z,8.78
2023-04-22T01:54:42.653Z,8.89
2023-04-22T01:55:42.649Z,8.84
2023-04-22T01:56:42.637Z,8.74
2023-04-22T01:57:42.602Z,8.67
2023-04-22T01:58:42.588Z,8.94
2023-04-22T01:59:42.632Z,8.84
2023-04-22T02:00:42.587Z,8.79
2023-04-22T02:01:42.601Z,8.92
2023-04-22T02:02:42.625Z,8.78
2023-04-22T02:03:42.688Z,8.79
2023-04-22T02:04:42.675Z,8.78
2023-04-22T02:05:42.561Z,8.76
2023-04-22T02:06:42.568Z,8.73
2023-04-22T02:07:42.529Z,8.73
2023-04-22T02:08:42.521Z,8.78
2023-04-22T02:09:42.678Z,8.78
2023-04-22T02:10:42.498Z,8.73
2023-04-22T02:11:42.490Z,8.81
2023-04-22T02:12:42.532Z,8.81
2023-04-22T02:13:42.472Z,8.69
2023-04-22T02:14:42.460Z,8.73
2023-04-22T02:15:42.518Z,8.78
2023-04-22T02:16:42.461Z,8.76
2023-04-22T02:17:42.471Z,8.84
2023-04-22T02:18:42.441Z,8.74
2023-04-22T02:19:42.866Z,8.67
2023-04-22T02:20:42.423Z,8.73
2023-04-22T02:21:42.414Z,8.76
2023-04-22T02:22:42.440Z,8.73
2023-04-22T02:23:42.406Z,8.73
2023-04-22T02:25:14.859Z,8.74
2023-04-22T02:25:42.388Z,8.67
2023-04-22T02:26:42.385Z,8.74
2023-04-22T02:27:42.395Z,8.63
2023-04-22T02:28:42.356Z,8.67
2023-04-22T02:29:42.558Z,8.64
2023-04-22T02:30:42.376Z,8.67
2023-04-22T02:31:42.382Z,8.58
2023-04-22T02:32:42.331Z,8.58
2023-04-22T02:33:42.340Z,8.67
2023-04-22T02:34:42.317Z,8.70
2023-04-22T02:35:42.294Z,8.63
2023-04-22T02:36:42.303Z,8.67
2023-04-22T02:37:42.307Z,8.63
2023-04-22T02:38:42.304Z,8.66
2023-04-22T02:39:42.542Z,8.64
2023-04-22T02:40:42.988Z,8.71
2023-04-22T02:41:42.273Z,8.69
2023-04-22T02:42:42.263Z,8.64
2023-04-22T02:43:42.254Z,8.53
2023-04-22T02:44:42.249Z,8.66
2023-04-22T02:45:42.222Z,8.63
2023-04-22T02:46:42.277Z,8.67
2023-04-22T02:47:42.222Z,8.69
2023-04-22T02:48:42.211Z,8.63
2023-04-22T02:49:42.397Z,8.74
2023-04-22T02:50:42.186Z,8.74
2023-04-22T02:51:42.210Z,8.69
2023-04-22T02:52:42.166Z,8.76
2023-04-22T02:53:42.220Z,8.70
2023-04-22T02:54:42.171Z,8.69
2023-04-22T02:55:42.131Z,8.66
2023-04-22T02:56:42.161Z,8.71
2023-04-22T02:57:42.130Z,8.73
2023-04-22T02:58:42.120Z,8.78
2023-04-22T02:59:42.325Z,8.74
2023-04-22T03:00:42.207Z,8.81
2023-04-22T03:01:42.138Z,8.76
2023-04-22T03:02:42.258Z,8.87
2023-04-22T03:03:42.283Z,8.88
2023-04-22T03:04:42.099Z,8.81
2023-04-22T03:05:42.097Z,8.87
2023-04-22T03:06:42.074Z,8.79
2023-04-22T03:07:42.062Z,8.81
2023-04-22T03:08:42.052Z,8.87
2023-04-22T03:09:42.292Z,8.73
2023-04-22T03:10:42.022Z,8.73
2023-04-22T03:11:42.041Z,8.84
2023-04-22T03:12:42.036Z,8.87
2023-04-22T03:13:42.015Z,8.69
2023-04-22T03:14:42.004Z,8.74
2023-04-22T03:15:41.988Z,8.81
2023-04-22T03:16:42.050Z,8.71
2023-04-22T03:17:42.028Z,8.76
2023-04-22T03:18:41.975Z,8.89
2023-04-22T03:19:42.380Z,8.92
2023-04-22T03:20:41.979Z,8.91
2023-04-22T03:21:41.951Z,8.76
2023-04-22T03:22:42.014Z,8.91
2023-04-22T03:23:41.927Z,8.89
2023-04-22T03:24:41.914Z,8.91
2023-04-22T03:25:41.927Z,8.89
2023-04-22T03:26:41.893Z,8.89
2023-04-22T03:27:41.927Z,9.02
2023-04-22T03:28:41.932Z,8.92
2023-04-22T03:29:42.175Z,9.02
2023-04-22T03:30:41.879Z,9.04
2023-04-22T03:31:41.902Z,8.99
2023-04-22T03:32:41.916Z,9.08
2023-04-22T03:33:42.453Z,8.97
2023-04-22T03:34:41.858Z,9.02
2023-04-22T03:35:41.864Z,8.97
2023-04-22T03:36:41.841Z,9.03
2023-04-22T03:37:41.838Z,9.02
2023-04-22T03:38:41.829Z,9.06
2023-04-22T03:39:41.990Z,9.02
2023-04-22T03:40:41.797Z,9.13
2023-04-22T03:41:41.782Z,9.08
2023-04-22T03:42:41.793Z,8.99
2023-04-22T03:43:41.807Z,9.13
2023-04-22T03:44:41.752Z,9.11
2023-04-22T03:45:41.811Z,9.10
2023-04-22T03:46:41.779Z,9.04
2023-04-22T04:02:29.123Z,8.73
2023-04-22T04:03:31.001Z,8.71
2023-04-22T04:04:30.664Z,8.73
2023-04-22T04:05:30.310Z,8.82
2023-04-22T04:06:30.192Z,8.78
2023-04-22T04:07:30.147Z,8.79
2023-04-22T04:08:30.162Z,8.81
2023-04-22T04:09:30.146Z,8.71
2023-04-22T04:10:30.111Z,8.82
2023-04-22T04:11:30.126Z,8.84
2023-04-22T04:12:30.121Z,8.91
2023-04-22T04:13:30.126Z,8.95
2023-04-22T04:14:30.098Z,8.92
2023-04-22T04:15:30.103Z,8.91
2023-04-22T04:16:30.219Z,8.92
2023-04-22T04:17:30.148Z,8.85
2023-04-22T04:18:30.069Z,8.92
2023-04-22T04:19:30.082Z,8.85
2023-04-22T04:20:30.100Z,8.95
2023-04-22T04:21:30.036Z,8.92
2023-04-22T04:22:30.040Z,8.95
2023-04-22T04:23:30.026Z,8.97
2023-04-22T04:24:30.064Z,8.92
2023-04-22T04:25:30.001Z,8.94
2023-04-22T04:26:30.009Z,8.92
2023-04-22T04:27:29.976Z,8.94
2023-04-22T04:28:29.969Z,8.95
2023-04-22T04:29:29.977Z,8.87
2023-04-22T04:30:32.356Z,8.89
2023-04-22T04:31:29.983Z,8.94
2023-04-22T04:32:30.083Z,8.91
2023-04-22T04:33:29.971Z,8.94
2023-04-22T04:34:29.922Z,8.92
2023-04-22T04:35:29.940Z,9.03
2023-04-22T04:36:29.945Z,8.91
2023-04-22T04:37:29.913Z,8.99
2023-04-22T04:38:29.926Z,8.97
2023-04-22T04:39:29.887Z,8.97
2023-04-22T04:40:29.944Z,8.99
2023-04-22T04:41:29.920Z,8.99
2023-04-22T04:42:29.885Z,9.08
2023-04-22T04:43:29.908Z,9.06
2023-04-22T04:44:29.888Z,8.99
2023-04-22T04:45:29.912Z,8.99
2023-04-22T04:46:29.942Z,9.10
2023-04-22T04:47:29.897Z,9.11
2023-04-22T04:48:29.837Z,9.16
2023-04-22T04:49:29.822Z,9.10
2023-04-22T04:50:29.839Z,9.06
2023-04-22T04:51:29.808Z,9.10
2023-04-22T04:52:29.791Z,9.13
2023-04-22T04:53:29.850Z,9.08
2023-04-22T04:54:29.760Z,9.14
2023-04-22T04:55:29.754Z,9.18
2023-04-22T04:56:29.771Z,9.22
2023-04-22T04:57:29.818Z,9.28
2023-04-22T04:58:29.754Z,9.26
2023-04-22T04:59:29.781Z,9.31
2023-04-22T05:00:29.761Z,9.25
2023-04-22T05:01:29.795Z,9.23
2023-04-22T05:02:29.791Z,9.34
2023-04-22T05:03:29.892Z,9.40
2023-04-22T05:04:30.913Z,9.47
2023-04-22T05:05:29.710Z,9.50
2023-04-22T05:06:29.840Z,9.55
2023-04-22T05:07:29.673Z,9.62
2023-04-22T05:08:29.700Z,9.72
2023-04-22T05:09:29.683Z,9.77
2023-04-22T05:10:29.649Z,9.86
2023-04-22T05:11:29.655Z,9.99
2023-04-22T05:12:29.644Z,10.15
2023-04-22T05:13:29.634Z,10.19
2023-04-22T05:14:29.664Z,10.53
2023-04-22T05:15:29.652Z,10.78
2023-04-22T05:16:29.684Z,11.11
2023-04-22T05:17:29.643Z,11.55
2023-04-22T05:18:29.597Z,11.75
2023-04-22T05:19:29.581Z,12.32
2023-04-22T05:20:29.599Z,12.68
2023-04-22T05:21:29.603Z,12.94
2023-04-22T05:22:29.584Z,13.01
2023-04-22T05:23:29.566Z,13.18
2023-04-22T05:24:29.572Z,13.65
2023-04-22T05:25:29.586Z,14.05
2023-04-22T05:26:29.570Z,14.32
2023-04-22T05:27:29.531Z,14.45
2023-04-22T05:28:29.555Z,14.92
2023-04-22T05:29:29.534Z,15.42
2023-04-22T05:30:29.508Z,15.73
2023-04-22T05:31:29.516Z,16.04
2023-04-22T05:32:29.525Z,16.16
2023-04-22T05:33:29.520Z,15.91
2023-04-22T05:34:29.488Z,15.22
2023-04-22T05:35:29.478Z,15.19
2023-04-22T05:36:31.394Z,15.04
2023-04-22T05:37:30.497Z,14.99
2023-04-22T05:38:29.514Z,15.14
2023-04-22T05:39:29.453Z,15.25
2023-04-22T05:41:02.206Z,15.21
2023-04-22T05:41:29.448Z,14.82
2023-04-22T05:42:29.462Z,14.54
2023-04-22T05:43:29.405Z,14.17
2023-04-22T05:44:29.430Z,14.28
2023-04-22T05:45:29.372Z,14.44
2023-04-22T05:46:29.483Z,14.51
2023-04-22T05:47:29.452Z,14.72
2023-04-22T05:48:29.363Z,14.72
2023-04-22T05:49:29.399Z,14.51
2023-04-22T05:50:29.371Z,14.50
2023-04-22T05:51:29.332Z,14.70
2023-04-22T05:52:29.345Z,15.21
2023-04-22T05:53:29.362Z,15.22
2023-04-22T05:54:29.416Z,15.02
2023-04-22T05:55:29.300Z,14.86
2023-04-22T05:56:29.307Z,14.92
2023-04-22T05:57:29.372Z,15.06
2023-04-22T05:58:29.342Z,14.85
2023-04-22T05:59:29.269Z,14.78
2023-04-22T06:00:29.320Z,14.79
2023-04-22T06:01:30.472Z,15.15
2023-04-22T06:02:29.446Z,15.27
2023-04-22T06:03:29.455Z,15.28
2023-04-22T06:04:29.749Z,14.66
2023-04-22T06:05:29.367Z,14.88
2023-04-22T06:06:29.272Z,15.07
2023-04-22T06:07:29.219Z,15.25
2023-04-22T06:08:29.205Z,15.73
2023-04-22T06:09:29.337Z,15.76
2023-04-22T06:10:29.263Z,15.68
2023-04-22T06:11:29.195Z,15.83
2023-04-22T06:12:29.218Z,16.02
2023-04-22T06:13:29.182Z,16.41
2023-04-22T06:14:29.173Z,16.60
2023-04-22T06:15:29.313Z,16.24
2023-04-22T06:16:29.146Z,15.75
2023-04-22T06:17:29.191Z,15.44
2023-04-22T06:18:29.525Z,15.31
2023-04-22T06:19:29.177Z,15.18
2023-04-22T06:20:29.133Z,15.02
2023-04-22T06:21:29.133Z,14.86
2023-04-22T06:22:29.115Z,14.68
2023-04-22T06:23:29.113Z,14.40
2023-04-22T06:24:29.076Z,13.71
2023-04-22T06:25:29.075Z,13.62
2023-04-22T06:26:29.047Z,13.37
2023-04-22T06:27:29.066Z,13.42
2023-04-22T06:28:29.058Z,13.42
2023-04-22T06:29:29.073Z,13.25
2023-04-22T06:30:29.051Z,13.41
2023-04-22T06:31:29.079Z,13.62
2023-04-22T06:32:29.065Z,13.83
2023-04-22T06:33:29.037Z,13.87
2023-04-22T06:34:29.048Z,13.93
2023-04-22T06:35:29.031Z,14.04
2023-04-22T06:36:30.544Z,14.05
2023-04-22T06:37:30.033Z,14.30
2023-04-22T06:38:29.041Z,14.70
2023-04-22T06:39:28.989Z,14.96
2023-04-22T06:40:28.962Z,14.97
2023-04-22T06:41:28.980Z,14.94
2023-04-22T06:42:29.053Z,15.22
2023-04-22T06:43:28.920Z,15.49
2023-04-22T06:44:28.958Z,15.59
2023-04-22T06:45:28.936Z,15.88
2023-04-22T06:46:28.937Z,16.08
2023-04-22T06:47:28.914Z,16.23
2023-04-22T06:48:28.903Z,15.61
2023-04-22T06:49:29.924Z,15.09
2023-04-22T06:50:28.914Z,14.89
2023-04-22T06:51:28.887Z,15.00
2023-04-22T06:52:28.909Z,14.97
2023-04-22T06:53:28.905Z,14.85
2023-04-22T06:54:28.921Z,15.14
2023-04-22T06:55:28.845Z,15.59
2023-04-22T06:56:28.849Z,16.09
2023-04-22T06:57:28.854Z,16.53
2023-04-22T06:58:28.873Z,16.84
2023-04-22T07:00:00.863Z,17.26
2023-04-22T07:00:28.830Z,17.27
2023-04-22T07:01:28.810Z,17.68
2023-04-22T07:02:28.800Z,18.26
2023-04-22T07:03:28.852Z,18.93
2023-04-22T07:04:28.853Z,19.39
2023-04-22T07:05:28.774Z,19.54
2023-04-22T07:06:28.733Z,20.00
2023-04-22T07:07:28.759Z,20.51
2023-04-22T07:08:28.734Z,20.92
2023-04-22T07:09:28.766Z,20.88
2023-04-22T07:10:28.729Z,21.07
2023-04-22T07:11:28.726Z,20.77
2023-04-22T07:12:28.726Z,20.80
2023-04-22T07:13:28.671Z,20.81
2023-04-22T07:14:28.679Z,19.96
2023-04-22T07:15:28.798Z,19.36
2023-04-22T07:16:28.797Z,19.66
2023-04-22T07:17:28.699Z,20.21
2023-04-22T07:18:28.690Z,20.65
2023-04-22T07:19:28.650Z,20.34
2023-04-22T07:20:28.716Z,20.58
2023-04-22T07:21:28.644Z,20.97
2023-04-22T07:22:28.620Z,21.24
2023-04-22T07:23:28.616Z,20.88
2023-04-22T07:24:28.623Z,20.62
2023-04-22T07:25:28.637Z,20.80
2023-04-22T07:26:28.621Z,20.67
2023-04-22T07:27:28.583Z,20.70
2023-04-22T07:28:28.603Z,20.74
2023-04-22T07:29:29.201Z,21.29
2023-04-22T07:30:28.560Z,21.48
2023-04-22T07:31:28.680Z,20.80
2023-04-22T07:32:28.594Z,21.22
2023-04-22T07:33:29.528Z,21.61
2023-04-22T07:34:28.536Z,21.98
2023-04-22T07:35:28.546Z,22.07
2023-04-22T07:36:28.555Z,22.29
2023-04-22T07:37:28.600Z,22.66
2023-04-22T07:38:28.556Z,23.34
2023-04-22T07:39:28.503Z,22.60
2023-04-22T07:40:28.500Z,22.51
2023-04-22T07:41:28.513Z,22.25
2023-04-22T07:42:28.535Z,22.50
2023-04-22T07:43:28.497Z,22.80
2023-04-22T07:44:28.490Z,23.48
2023-04-22T07:45:28.474Z,24.01
2023-04-22T07:46:28.480Z,23.77
2023-04-22T07:47:28.449Z,23.20
2023-04-22T07:48:28.453Z,23.21
2023-04-22T07:49:28.408Z,23.76
2023-04-22T07:50:28.420Z,23.58
2023-04-22T07:51:28.427Z,23.48
2023-04-22T07:52:28.390Z,23.27
2023-04-22T07:53:28.418Z,22.47
2023-04-22T07:54:28.395Z,22.63
2023-04-22T07:55:28.388Z,23.23
2023-04-22T07:56:28.423Z,23.62
2023-04-22T07:57:28.401Z,23.80
2023-04-22T07:58:28.357Z,23.24
2023-04-22T07:59:28.401Z,23.73
2023-04-22T08:00:28.396Z,23.58
2023-04-22T08:01:28.312Z,23.23
2023-04-22T08:02:28.405Z,22.28
2023-04-22T08:03:28.416Z,21.79
2023-04-22T08:04:28.666Z,21.35
2023-04-22T08:05:28.315Z,21.17
2023-04-22T08:06:28.309Z,21.57
2023-04-22T08:07:32.994Z,22.30
2023-04-22T08:08:30.302Z,23.02
2023-04-22T08:09:28.298Z,23.78
2023-04-22T08:10:28.260Z,24.60
2023-04-22T08:11:28.345Z,24.84
2023-04-22T08:12:28.249Z,24.65
2023-04-22T08:13:28.259Z,24.60
2023-04-22T08:14:28.398Z,24.24
2023-04-22T08:15:28.243Z,23.65
2023-04-22T08:16:28.324Z,23.56
2023-04-22T08:17:28.320Z,24.01
2023-04-22T08:18:28.248Z,24.48
2023-04-22T08:19:28.258Z,24.60
2023-04-22T08:20:28.202Z,24.78
2023-04-22T08:21:28.178Z,25.10
2023-04-22T08:22:28.166Z,25.44
2023-04-22T08:23:28.255Z,25.62
2023-04-22T08:24:29.199Z,25.40
2023-04-22T08:25:28.173Z,25.65
2023-04-22T08:26:28.150Z,26.02
2023-04-22T08:27:28.159Z,26.21
2023-04-22T08:28:28.224Z,26.48
2023-04-22T08:29:28.125Z,26.66
2023-04-22T08:30:28.144Z,26.95
2023-04-22T08:31:28.183Z,27.02
2023-04-22T08:32:28.116Z,26.92
2023-04-22T08:33:28.101Z,26.60
2023-04-22T08:34:28.110Z,26.58
2023-04-22T08:35:28.125Z,25.38
2023-04-22T08:36:28.100Z,24.36
2023-04-22T08:37:28.153Z,23.95
2023-04-22T08:38:28.097Z,24.16
2023-04-22T08:39:28.072Z,23.92
2023-04-22T08:40:28.061Z,24.14
2023-04-22T08:41:28.077Z,23.61
2023-04-22T08:42:28.072Z,23.81
2023-04-22T08:43:28.091Z,23.48
2023-04-22T08:44:28.026Z,23.32
2023-04-22T08:45:28.083Z,23.05
2023-04-22T08:46:28.763Z,23.31
2023-04-22T08:47:29.148Z,23.81
2023-04-22T08:48:28.013Z,23.46
2023-04-22T08:49:28.069Z,23.54
2023-04-22T08:50:27.975Z,23.62
2023-04-22T08:51:28.022Z,23.96
2023-04-22T08:52:27.973Z,23.66
2023-04-22T08:53:27.953Z,23.00
2023-04-22T08:54:28.024Z,23.08
2023-04-22T08:55:27.928Z,23.03
2023-04-22T08:56:27.913Z,22.44
2023-04-22T08:57:27.953Z,22.57
2023-04-22T08:58:27.920Z,22.55
2023-04-22T08:59:27.985Z,22.98
2023-04-22T09:00:27.961Z,23.43
2023-04-22T09:01:27.983Z,24.01
2023-04-22T09:02:27.936Z,24.50
2023-04-22T09:03:27.951Z,25.16
2023-04-22T09:04:27.916Z,24.93
2023-04-22T09:05:28.084Z,25.26
2023-04-22T09:06:28.895Z,24.95
2023-04-22T09:07:27.861Z,24.42
2023-04-22T09:08:27.940Z,23.25
2023-04-22T09:09:27.855Z,22.39
2023-04-22T09:10:27.801Z,22.13
2023-04-22T09:11:27.865Z,22.38
2023-04-22T09:12:27.818Z,22.99
2023-04-22T09:13:27.823Z,23.55
2023-04-22T09:14:27.781Z,23.91
2023-04-22T09:15:27.799Z,24.26
2023-04-22T09:16:27.781Z,24.11
2023-04-22T09:17:27.761Z,24.35
2023-04-22T09:18:27.760Z,24.35
2023-04-22T09:19:27.729Z,24.55
2023-04-22T09:20:27.767Z,24.81
2023-04-22T09:21:27.892Z,24.89
2023-04-22T09:22:27.721Z,24.88
2023-04-22T09:23:27.736Z,25.14
2023-04-22T09:24:27.804Z,24.91
2023-04-22T09:25:27.765Z,24.88
2023-04-22T09:26:27.685Z,24.80
2023-04-22T09:27:27.724Z,24.21
2023-04-22T09:28:27.880Z,24.03
2023-04-22T09:29:27.674Z,23.84
2023-04-22T09:30:27.684Z,23.80
2023-04-22T09:31:27.696Z,23.74
2023-04-22T09:32:27.703Z,23.63
2023-04-22T09:33:27.655Z,23.28
2023-04-22T09:34:27.649Z,23.10
2023-04-22T09:35:27.630Z,23.06
2023-04-22T09:36:27.629Z,23.15
2023-04-22T09:37:33.295Z,23.15
2023-04-22T09:38:29.651Z,22.72
2023-04-22T09:39:27.631Z,22.32
2023-04-22T09:40:27.599Z,22.26
2023-04-22T09:41:27.608Z,22.38
2023-04-22T09:42:27.607Z,22.69
2023-04-22T09:43:27.645Z,22.62
2023-04-22T09:44:27.943Z,22.75
2023-04-22T09:45:27.640Z,22.78
2023-04-22T09:46:27.845Z,23.23
2023-04-22T09:47:27.614Z,23.58
2023-04-22T09:48:27.564Z,23.84
2023-04-22T09:49:28.377Z,24.23
2023-04-22T09:50:27.542Z,24.20
2023-04-22T09:51:28.395Z,24.39
2023-04-22T09:52:27.596Z,24.54
2023-04-22T09:53:27.533Z,24.85
2023-04-22T09:54:27.532Z,24.85
2023-04-22T09:55:27.495Z,25.14
2023-04-22T09:56:27.464Z,25.29
2023-04-22T09:57:27.507Z,25.48
2023-04-22T09:58:27.459Z,25.46
2023-04-22T09:59:27.472Z,25.06
2023-04-22T10:00:27.457Z,25.17
2023-04-22T10:01:27.451Z,25.41
2023-04-22T10:02:27.527Z,25.54
2023-04-22T10:03:27.475Z,25.93
2023-04-22T10:04:27.539Z,26.02
2023-04-22T10:05:27.407Z,26.06
2023-04-22T10:06:27.410Z,26.15
2023-04-22T10:07:27.499Z,26.16
2023-04-22T10:08:27.365Z,26.05
2023-04-22T10:09:27.364Z,25.99
2023-04-22T10:10:27.380Z,26.07
2023-04-22T10:11:27.359Z,26.13
2023-04-22T10:12:35.310Z,26.09
2023-04-22T10:13:29.374Z,25.81
2023-04-22T10:14:27.340Z,25.38
2023-04-22T10:15:27.311Z,25.22
2023-04-22T10:16:27.328Z,25.23
2023-04-22T10:17:27.359Z,24.86
2023-04-22T10:18:27.356Z,24.55
2023-04-22T10:19:27.289Z,24.77
2023-04-22T10:20:27.307Z,24.29
2023-04-22T10:21:27.283Z,23.62
2023-04-22T10:22:27.310Z,23.50
2023-04-22T10:23:27.273Z,24.13
2023-04-22T10:24:27.348Z,24.80
2023-04-22T10:25:27.318Z,25.59
2023-04-22T10:26:27.247Z,25.93
2023-04-22T10:27:27.236Z,25.84
2023-04-22T10:28:27.261Z,25.90
2023-04-22T10:29:27.241Z,26.19
2023-04-22T10:30:27.242Z,26.34
2023-04-22T10:31:27.342Z,26.65
2023-04-22T10:32:27.256Z,26.22
2023-04-22T10:33:27.239Z,25.85
2023-04-22T10:34:27.204Z,25.01
2023-04-22T10:35:27.212Z,24.76
2023-04-22T10:36:27.181Z,24.47
2023-04-22T10:37:27.176Z,24.80
2023-04-22T10:38:27.152Z,25.59
2023-04-22T10:39:27.165Z,26.43
2023-04-22T10:40:27.149Z,26.71
2023-04-22T10:41:27.129Z,26.80
2023-04-22T10:42:27.117Z,26.56
2023-04-22T10:43:27.117Z,25.99
2023-04-22T10:44:27.125Z,25.87
2023-04-22T10:45:27.124Z,25.85
2023-04-22T10:46:27.171Z,25.63
2023-04-22T10:47:27.122Z,25.11
2023-04-22T10:48:27.097Z,25.33
2023-04-22T10:49:27.106Z,25.35
2023-04-22T10:50:27.137Z,24.48
2023-04-22T10:51:27.065Z,24.16
2023-04-22T10:52:27.074Z,23.99
2023-04-22T10:53:27.048Z,24.03
2023-04-22T10:54:29.348Z,24.21
2023-04-22T10:55:27.839Z,24.08
2023-04-22T10:56:27.020Z,23.91
2023-04-22T10:57:27.012Z,23.78
2023-04-22T10:58:27.032Z,24.01
2023-04-22T10:59:27.089Z,23.93
2023-04-22T11:00:29.512Z,23.92
2023-04-22T11:01:28.065Z,23.74
2023-04-22T11:02:27.127Z,23.43
2023-04-22T11:03:27.173Z,23.03
2023-04-22T11:04:27.905Z,23.55
2023-04-22T11:05:26.971Z,23.80
2023-04-22T11:06:26.976Z,23.84
2023-04-22T11:07:27.179Z,23.65
2023-04-22T11:08:26.941Z,23.61
2023-04-22T11:09:27.038Z,23.43
2023-04-22T11:10:26.936Z,23.58
2023-04-22T11:11:26.961Z,23.91
2023-04-22T11:12:26.912Z,24.14
2023-04-22T11:13:26.936Z,23.63
2023-04-22T11:14:26.872Z,23.48
2023-04-22T11:15:26.884Z,23.40
2023-04-22T11:16:26.908Z,23.76
2023-04-22T11:17:26.931Z,24.08
2023-04-22T11:18:26.889Z,24.01
2023-04-22T11:19:27.002Z,23.88
2023-04-22T11:20:26.857Z,24.11
2023-04-22T11:21:26.851Z,24.28
2023-04-22T11:22:26.855Z,24.06
2023-04-22T11:23:26.932Z,24.48
2023-04-22T11:24:27.757Z,24.74
2023-04-22T11:25:26.801Z,24.60
2023-04-22T11:26:26.779Z,24.17
2023-04-22T11:27:26.801Z,23.95
2023-04-22T11:28:26.813Z,24.03
2023-04-22T11:29:27.531Z,23.91
2023-04-22T11:30:26.774Z,23.87
2023-04-22T11:31:26.887Z,23.92
2023-04-22T11:32:26.763Z,23.96
2023-04-22T11:33:26.756Z,24.08
2023-04-22T11:34:26.758Z,23.91
2023-04-22T11:35:26.726Z,24.03
2023-04-22T11:36:26.706Z,24.01
2023-04-22T11:37:26.725Z,23.71
2023-04-22T11:38:26.686Z,23.66
2023-04-22T11:39:26.788Z,23.69
2023-04-22T11:40:29.910Z,23.88
2023-04-22T11:41:27.671Z,24.03
2023-04-22T11:42:26.657Z,23.84
2023-04-22T11:43:26.743Z,23.71
2023-04-22T11:44:26.671Z,23.74
2023-04-22T11:45:26.717Z,24.03
2023-04-22T11:46:26.686Z,24.26
2023-04-22T11:47:26.670Z,24.42
2023-04-22T11:48:26.672Z,23.92
2023-04-22T11:49:26.622Z,23.63
2023-04-22T11:50:26.625Z,23.62
2023-04-22T11:51:26.628Z,23.78
2023-04-22T11:52:26.637Z,23.65
2023-04-22T11:53:26.614Z,23.31
2023-04-22T11:54:26.612Z,23.68
2023-04-22T11:55:26.598Z,23.86
2023-04-22T11:56:26.572Z,24.17
2023-04-22T11:57:26.582Z,24.38
2023-04-22T11:58:26.552Z,23.80
2023-04-22T11:59:26.718Z,23.15
2023-04-22T12:00:26.553Z,23.13
2023-04-22T12:01:26.585Z,23.37
2023-04-22T12:02:26.644Z,23.36
2023-04-22T12:03:26.829Z,23.56
2023-04-22T12:04:26.519Z,23.18
2023-04-22T12:05:26.845Z,23.17
2023-04-22T12:06:26.500Z,22.96
2023-04-22T12:07:26.576Z,22.99
2023-04-22T12:08:26.545Z,23.20
2023-04-22T12:09:26.459Z,22.98
2023-04-22T12:10:26.435Z,22.85
2023-04-22T12:11:26.523Z,22.87
2023-04-22T12:12:26.471Z,23.00
2023-04-22T12:13:26.434Z,22.83
2023-04-22T12:14:26.540Z,22.84
2023-04-22T12:15:26.432Z,23.06
2023-04-22T12:16:26.908Z,22.90
2023-04-22T12:17:26.470Z,23.23
2023-04-22T12:18:26.396Z,23.37
2023-04-22T12:19:26.410Z,23.43
2023-04-22T12:20:26.370Z,23.39
2023-04-22T12:21:26.378Z,23.58
2023-04-22T12:22:26.345Z,23.68
2023-04-22T12:23:26.352Z,23.68
2023-04-22T12:24:26.346Z,23.76
2023-04-22T12:25:26.336Z,23.76
2023-04-22T12:26:27.584Z,23.74
2023-04-22T12:27:26.304Z,23.50
2023-04-22T12:28:26.316Z,23.62
2023-04-22T12:29:26.344Z,23.63
2023-04-22T12:30:26.271Z,23.73
2023-04-22T12:31:26.304Z,23.88
2023-04-22T12:32:26.286Z,23.96
2023-04-22T12:33:26.325Z,23.88
2023-04-22T12:34:26.293Z,23.93
2023-04-22T12:35:26.268Z,23.71
2023-04-22T12:36:26.636Z,23.76
2023-04-22T12:37:26.519Z,23.71
2023-04-22T12:38:26.218Z,23.80
2023-04-22T12:39:26.308Z,23.86
2023-04-22T12:40:26.209Z,23.80
2023-04-22T12:41:26.263Z,23.73
2023-04-22T12:42:26.260Z,23.80
2023-04-22T12:43:26.382Z,23.59
2023-04-22T12:44:26.164Z,23.96
2023-04-22T12:45:26.159Z,24.18
2023-04-22T12:46:27.070Z,24.06
2023-04-22T12:47:26.226Z,23.69
2023-04-22T12:48:26.143Z,23.68
2023-04-22T12:49:26.236Z,23.62
2023-04-22T12:50:26.151Z,23.76
2023-04-22T12:51:26.163Z,23.62
2023-04-22T12:52:26.173Z,23.78
2023-04-22T12:53:26.102Z,23.61
2023-04-22T12:54:26.123Z,23.65
2023-04-22T12:55:26.128Z,23.81
2023-04-22T12:56:26.106Z,23.73
2023-04-22T12:57:26.105Z,23.69
2023-04-22T12:58:26.127Z,23.10
2023-04-22T12:59:26.067Z,23.23
2023-04-22T13:00:26.960Z,23.36
2023-04-22T13:01:26.068Z,23.66
2023-04-22T13:02:26.337Z,23.84
2023-04-22T13:03:26.250Z,24.35
2023-04-22T13:04:26.106Z,24.26
2023-04-22T13:05:26.064Z,24.01
2023-04-22T13:06:26.034Z,23.95
2023-04-22T13:07:26.015Z,24.17
2023-04-22T13:08:25.980Z,24.32
2023-04-22T13:09:25.983Z,24.48
2023-04-22T13:10:26.008Z,24.36
2023-04-22T13:11:26.013Z,24.40
2023-04-22T13:12:26.032Z,24.06
2023-04-22T13:13:25.969Z,24.06
2023-04-22T13:14:25.955Z,23.62
2023-04-22T13:15:26.056Z,23.37
2023-04-22T13:16:25.977Z,23.63
2023-04-22T13:17:25.974Z,23.92